Check out our new PWSWeather beta!
PWSweather.com
Personal Weather Stations
Station Observations
AUMAP01
Sunshine Coast Hinterland, MapletonAU 4560

Sunshine Coast HinterlandMapletonAU 4560

Lat: -26.61972, Lon: 152.85944

Elevation: 1319

Station Type: Davis Vantage Pro 2

http://mapletonweather.mykoala.net

Latest ConditionsUpdated 8:10:02 PM GMT+10:10 Wednesday, Feb 26, 2020
Currently Today's Max Today's Min Today's Average
Temperature 72.7°F22.6°C 82.0°F27.8°C 69.1°F20.6°C 73.7°F23.2°C
Dew Point 72.0°F22.2°C 76.5°F24.7°C 69.1°F20.6°C 72.1°F22.3°C
Winds 1.0 mph NW1.6 kmh NW 4.0 mph -6.4 kmh - - 1.2 mph 1.9 kmh
Wind Gusts 3.0 mph4.8 kmh 9.0 mph14.5 kmh - -
Humidity 98% 100% 79% 95%
Pressure 29.80 in1009.1 mb 29.91 in1012.9 mb 29.75 in1007.5 mb -
Precipitation - 0.08 in2.0 mm - -
Hour Temp Dew Point Humidity Winds Wind Gusts Pressure Precip Precip Rate Daily Precip Total
08:10 PM 72.7°F22.6°C 72.0°F22.2°C 98% 1.0 mph NW1.6 kmh NW 3.0 mph4.8 kmh 29.80 in1009.1 mb 0.00 in0.0 mm 0.00 in0.0 mm 0.08 in2.0 mm
08:00 PM 72.3°F22.4°C 71.8°F22.1°C 98% Calm Calm 1.0 mph1.6 kmh 29.80 in1009.1 mb 0.00 in0.0 mm 0.00 in0.0 mm 0.08 in2.0 mm
07:50 PM 72.5°F22.5°C 72.0°F22.2°C 98% Calm Calm 3.0 mph4.8 kmh 29.80 in1009.1 mb 0.00 in0.0 mm 0.00 in0.0 mm 0.08 in2.0 mm
07:40 PM 72.7°F22.6°C 72.1°F22.3°C 98% Calm Calm 1.0 mph1.6 kmh 29.80 in1009.1 mb 0.00 in0.0 mm 0.00 in0.0 mm 0.08 in2.0 mm
07:30 PM 72.9°F22.7°C 72.1°F22.3°C 98% Calm Calm 2.0 mph3.2 kmh 29.80 in1009.1 mb 0.00 in0.0 mm 0.00 in0.0 mm 0.08 in2.0 mm
07:20 PM 72.9°F22.7°C 72.0°F22.2°C 97% Calm Calm 1.0 mph1.6 kmh 29.79 in1008.8 mb 0.00 in0.0 mm 0.00 in0.0 mm 0.08 in2.0 mm
07:10 PM 73.0°F22.8°C 72.1°F22.3°C 97% Calm Calm 1.0 mph1.6 kmh 29.79 in1008.8 mb 0.00 in0.0 mm 0.00 in0.0 mm 0.08 in2.0 mm
07:00 PM 73.2°F22.9°C 72.3°F22.4°C 97% Calm Calm 1.0 mph1.6 kmh 29.79 in1008.8 mb 0.01 in0.3 mm 0.00 in0.0 mm 0.08 in2.0 mm
06:50 PM 73.6°F23.1°C 72.7°F22.6°C 97% Calm Calm 1.0 mph1.6 kmh 29.80 in1009.1 mb 0.01 in0.3 mm 0.00 in0.0 mm 0.08 in2.0 mm
06:40 PM 73.8°F23.2°C 72.9°F22.7°C 97% Calm Calm 1.0 mph1.6 kmh 29.80 in1009.1 mb 0.01 in0.3 mm 0.00 in0.0 mm 0.08 in2.0 mm
06:30 PM 73.9°F23.3°C 73.0°F22.8°C 97% Calm Calm 1.0 mph1.6 kmh 29.80 in1009.1 mb 0.01 in0.3 mm 0.00 in0.0 mm 0.08 in2.0 mm
06:20 PM 73.9°F23.3°C 73.0°F22.8°C 97% Calm Calm 2.0 mph3.2 kmh 29.80 in1009.1 mb 0.01 in0.3 mm 0.00 in0.0 mm 0.08 in2.0 mm
06:10 PM 74.1°F23.4°C 73.2°F22.9°C 97% 1.0 mph S1.6 kmh S 2.0 mph3.2 kmh 29.80 in1009.1 mb 0.01 in0.3 mm 0.00 in0.0 mm 0.08 in2.0 mm
06:00 PM 74.5°F23.6°C 73.6°F23.1°C 97% 2.0 mph SSE3.2 kmh SSE 5.0 mph8.0 kmh 29.79 in1008.8 mb 0.01 in0.3 mm 0.00 in0.0 mm 0.07 in1.8 mm
05:50 PM 74.8°F23.8°C 73.9°F23.3°C 97% 1.0 mph SE1.6 kmh SE 3.0 mph4.8 kmh 29.79 in1008.8 mb 0.02 in0.5 mm 0.00 in0.0 mm 0.07 in1.8 mm
05:40 PM 74.7°F23.7°C 73.4°F23.0°C 96% 1.0 mph SE1.6 kmh SE 3.0 mph4.8 kmh 29.78 in1008.5 mb 0.02 in0.5 mm 0.00 in0.0 mm 0.07 in1.8 mm
05:30 PM 74.7°F23.7°C 73.4°F23.0°C 96% Calm Calm 2.0 mph3.2 kmh 29.79 in1008.8 mb 0.02 in0.5 mm 0.00 in0.0 mm 0.07 in1.8 mm
05:20 PM 74.8°F23.8°C 73.6°F23.1°C 96% Calm Calm 2.0 mph3.2 kmh 29.77 in1008.1 mb 0.03 in0.8 mm 0.00 in0.0 mm 0.07 in1.8 mm
05:10 PM 74.7°F23.7°C 73.4°F23.0°C 96% Calm Calm 1.0 mph1.6 kmh 29.77 in1008.1 mb 0.03 in0.8 mm 0.00 in0.0 mm 0.07 in1.8 mm
05:00 PM 74.5°F23.6°C 73.0°F22.8°C 95% Calm Calm 1.0 mph1.6 kmh 29.76 in1007.8 mb 0.03 in0.8 mm 0.00 in0.0 mm 0.06 in1.5 mm
04:50 PM 74.5°F23.6°C 73.0°F22.8°C 95% Calm Calm 2.0 mph3.2 kmh 29.76 in1007.8 mb 0.03 in0.8 mm 0.00 in0.0 mm 0.06 in1.5 mm
04:40 PM 74.8°F23.8°C 73.0°F22.8°C 94% Calm Calm 1.0 mph1.6 kmh 29.76 in1007.8 mb 0.04 in1.0 mm 0.00 in0.0 mm 0.06 in1.5 mm
04:30 PM 75.0°F23.9°C 73.2°F22.9°C 94% Calm Calm 1.0 mph1.6 kmh 29.76 in1007.8 mb 0.04 in1.0 mm 0.12 in3.0 mm 0.06 in1.5 mm
04:20 PM 75.4°F24.1°C 73.2°F22.9°C 93% Calm Calm 2.0 mph3.2 kmh 29.76 in1007.8 mb 0.02 in0.5 mm 0.00 in0.0 mm 0.04 in1.0 mm
04:10 PM 75.6°F24.2°C 72.9°F22.7°C 91% 1.0 mph SE1.6 kmh SE 3.0 mph4.8 kmh 29.75 in1007.5 mb 0.02 in0.5 mm 0.00 in0.0 mm 0.04 in1.0 mm
04:00 PM 76.5°F24.7°C 73.6°F23.1°C 91% 1.0 mph SE1.6 kmh SE 4.0 mph6.4 kmh 29.76 in1007.8 mb 0.02 in0.5 mm 0.01 in0.3 mm 0.03 in0.8 mm
03:50 PM 77.4°F25.2°C 73.9°F23.3°C 89% 1.0 mph SE1.6 kmh SE 4.0 mph6.4 kmh 29.75 in1007.5 mb 0.01 in0.3 mm 0.06 in1.5 mm 0.02 in0.5 mm
03:40 PM 77.7°F25.4°C 73.9°F23.3°C 88% 2.0 mph SSE3.2 kmh SSE 6.0 mph9.7 kmh 29.76 in1007.8 mb 0.00 in0.0 mm 0.00 in0.0 mm 0.02 in0.5 mm
03:30 PM 78.3°F25.7°C 73.4°F23.0°C 85% 3.0 mph SE4.8 kmh SE 8.0 mph12.9 kmh 29.76 in1007.8 mb 0.00 in0.0 mm 0.00 in0.0 mm 0.02 in0.5 mm
03:20 PM 79.0°F26.1°C 74.1°F23.4°C 85% 2.0 mph SE3.2 kmh SE 5.0 mph8.0 kmh 29.77 in1008.1 mb 0.00 in0.0 mm 0.00 in0.0 mm 0.02 in0.5 mm
03:10 PM 79.5°F26.4°C 74.3°F23.5°C 84% 2.0 mph SE3.2 kmh SE 7.0 mph11.3 kmh 29.77 in1008.1 mb 0.00 in0.0 mm 0.00 in0.0 mm 0.02 in0.5 mm
03:00 PM 80.4°F26.9°C 75.2°F24.0°C 84% 4.0 mph SE6.4 kmh SE 9.0 mph14.5 kmh 29.76 in1007.8 mb 0.00 in0.0 mm 0.00 in0.0 mm 0.02 in0.5 mm
02:50 PM 80.2°F26.8°C 75.2°F24.0°C 85% 3.0 mph SE4.8 kmh SE 9.0 mph14.5 kmh 29.77 in1008.1 mb 0.00 in0.0 mm 0.00 in0.0 mm 0.02 in0.5 mm
02:40 PM 79.7°F26.5°C 74.8°F23.8°C 85% 3.0 mph SE4.8 kmh SE 9.0 mph14.5 kmh 29.78 in1008.5 mb 0.00 in0.0 mm 0.00 in0.0 mm 0.02 in0.5 mm
02:30 PM 80.6°F27.0°C 76.1°F24.5°C 86% 3.0 mph SE4.8 kmh SE 9.0 mph14.5 kmh 29.78 in1008.5 mb 0.00 in0.0 mm 0.00 in0.0 mm 0.02 in0.5 mm
02:20 PM 79.9°F26.6°C 75.0°F23.9°C 85% 3.0 mph SE4.8 kmh SE 8.0 mph12.9 kmh 29.79 in1008.8 mb 0.00 in0.0 mm 0.00 in0.0 mm 0.02 in0.5 mm
02:10 PM 81.1°F27.3°C 75.7°F24.3°C 84% 3.0 mph SSE4.8 kmh SSE 8.0 mph12.9 kmh 29.79 in1008.8 mb 0.01 in0.3 mm 0.00 in0.0 mm 0.02 in0.5 mm
02:00 PM 81.9°F27.7°C 76.5°F24.7°C 84% 2.0 mph SSE3.2 kmh SSE 7.0 mph11.3 kmh 29.79 in1008.8 mb 0.01 in0.3 mm 0.00 in0.0 mm 0.02 in0.5 mm
01:50 PM 80.8°F27.1°C 75.7°F24.3°C 85% 1.0 mph SSW1.6 kmh SSW 3.0 mph4.8 kmh 29.80 in1009.1 mb 0.01 in0.3 mm 0.00 in0.0 mm 0.02 in0.5 mm
01:40 PM 80.6°F27.0°C 76.3°F24.6°C 87% 1.0 mph NNW1.6 kmh NNW 5.0 mph8.0 kmh 29.80 in1009.1 mb 0.01 in0.3 mm 0.00 in0.0 mm 0.02 in0.5 mm
01:30 PM 80.2°F26.8°C 75.6°F24.2°C 86% 1.0 mph SE1.6 kmh SE 3.0 mph4.8 kmh 29.81 in1009.5 mb 0.01 in0.3 mm 0.00 in0.0 mm 0.02 in0.5 mm
01:20 PM 80.4°F26.9°C 75.2°F24.0°C 84% 2.0 mph SE3.2 kmh SE 5.0 mph8.0 kmh 29.81 in1009.5 mb 0.01 in0.3 mm 0.06 in1.5 mm 0.02 in0.5 mm
01:10 PM 81.1°F27.3°C 74.8°F23.8°C 81% 2.0 mph SE3.2 kmh SE 5.0 mph8.0 kmh 29.82 in1009.8 mb 0.00 in0.0 mm 0.00 in0.0 mm 0.01 in0.3 mm
01:00 PM 81.9°F27.7°C 74.7°F23.7°C 79% 2.0 mph SE3.2 kmh SE 9.0 mph14.5 kmh 29.82 in1009.8 mb 0.00 in0.0 mm 0.00 in0.0 mm 0.01 in0.3 mm
12:50 PM 82.0°F27.8°C 75.2°F24.0°C 80% 2.0 mph SE3.2 kmh SE 6.0 mph9.7 kmh 29.82 in1009.8 mb 0.00 in0.0 mm 0.00 in0.0 mm 0.01 in0.3 mm
12:40 PM 81.3°F27.4°C 75.0°F23.9°C 81% 2.0 mph SE3.2 kmh SE 5.0 mph8.0 kmh 29.82 in1009.8 mb 0.00 in0.0 mm 0.00 in0.0 mm 0.01 in0.3 mm
12:30 PM 81.1°F27.3°C 75.9°F24.4°C 84% 2.0 mph SSE3.2 kmh SSE 6.0 mph9.7 kmh 29.83 in1010.2 mb 0.00 in0.0 mm 0.00 in0.0 mm 0.01 in0.3 mm
12:20 PM 80.2°F26.8°C 75.2°F24.0°C 85% 1.0 mph SE1.6 kmh SE 3.0 mph4.8 kmh 29.83 in1010.2 mb 0.00 in0.0 mm 0.00 in0.0 mm 0.01 in0.3 mm
12:10 PM 79.0°F26.1°C 73.9°F23.3°C 85% 2.0 mph SSE3.2 kmh SSE 4.0 mph6.4 kmh 29.84 in1010.5 mb 0.00 in0.0 mm 0.00 in0.0 mm 0.01 in0.3 mm
12:00 PM 79.2°F26.2°C 73.9°F23.3°C 84% 2.0 mph ENE3.2 kmh ENE 4.0 mph6.4 kmh 29.84 in1010.5 mb 0.00 in0.0 mm 0.00 in0.0 mm 0.01 in0.3 mm
11:50 AM 79.9°F26.6°C 75.0°F23.9°C 85% 2.0 mph SSE3.2 kmh SSE 8.0 mph12.9 kmh 29.85 in1010.8 mb 0.00 in0.0 mm 0.00 in0.0 mm 0.01 in0.3 mm
11:40 AM 79.9°F26.6°C 74.7°F23.7°C 84% 3.0 mph SE4.8 kmh SE 7.0 mph11.3 kmh 29.86 in1011.2 mb 0.00 in0.0 mm 0.00 in0.0 mm 0.01 in0.3 mm
11:30 AM 79.9°F26.6°C 74.8°F23.8°C 85% 3.0 mph SSE4.8 kmh SSE 6.0 mph9.7 kmh 29.86 in1011.2 mb 0.00 in0.0 mm 0.00 in0.0 mm 0.01 in0.3 mm
11:20 AM 79.5°F26.4°C 74.3°F23.5°C 84% 3.0 mph SE4.8 kmh SE 8.0 mph12.9 kmh 29.86 in1011.2 mb 0.00 in0.0 mm 0.00 in0.0 mm 0.01 in0.3 mm
11:10 AM 79.2°F26.2°C 75.9°F24.4°C 90% 1.0 mph E1.6 kmh E 5.0 mph8.0 kmh 29.87 in1011.5 mb 0.00 in0.0 mm 0.00 in0.0 mm 0.01 in0.3 mm
11:00 AM 78.1°F25.6°C 75.2°F24.0°C 91% 3.0 mph ESE4.8 kmh ESE 8.0 mph12.9 kmh 29.87 in1011.5 mb 0.00 in0.0 mm 0.00 in0.0 mm 0.01 in0.3 mm
10:50 AM 77.5°F25.3°C 75.4°F24.1°C 93% 2.0 mph SE3.2 kmh SE 6.0 mph9.7 kmh 29.87 in1011.5 mb 0.00 in0.0 mm 0.00 in0.0 mm 0.01 in0.3 mm
10:40 AM 76.5°F24.7°C 75.2°F24.0°C 96% 1.0 mph SSE1.6 kmh SSE 8.0 mph12.9 kmh 29.88 in1011.9 mb 0.00 in0.0 mm 0.00 in0.0 mm 0.01 in0.3 mm
10:30 AM 75.0°F23.9°C 73.6°F23.1°C 95% 2.0 mph SE3.2 kmh SE 3.0 mph4.8 kmh 29.88 in1011.9 mb 0.00 in0.0 mm 0.00 in0.0 mm 0.01 in0.3 mm
10:20 AM 75.0°F23.9°C 73.9°F23.3°C 96% 2.0 mph SE3.2 kmh SE 4.0 mph6.4 kmh 29.89 in1012.2 mb 0.00 in0.0 mm 0.00 in0.0 mm 0.01 in0.3 mm
10:10 AM 75.2°F24.0°C 73.9°F23.3°C 96% 2.0 mph SSE3.2 kmh SSE 5.0 mph8.0 kmh 29.88 in1011.9 mb 0.01 in0.3 mm 0.00 in0.0 mm 0.01 in0.3 mm
10:00 AM 75.4°F24.1°C 74.8°F23.8°C 98% 2.0 mph SE3.2 kmh SE 6.0 mph9.7 kmh 29.88 in1011.9 mb 0.01 in0.3 mm 0.00 in0.0 mm 0.01 in0.3 mm
09:50 AM 74.1°F23.4°C 73.8°F23.2°C 99% 2.0 mph SSE3.2 kmh SSE 4.0 mph6.4 kmh 29.88 in1011.9 mb 0.01 in0.3 mm 0.00 in0.0 mm 0.01 in0.3 mm
09:40 AM 73.6°F23.1°C 73.2°F22.9°C 99% 1.0 mph SE1.6 kmh SE 3.0 mph4.8 kmh 29.88 in1011.9 mb 0.01 in0.3 mm 0.00 in0.0 mm 0.01 in0.3 mm
09:30 AM 73.0°F22.8°C 72.9°F22.7°C 99% 1.0 mph SW1.6 kmh SW 3.0 mph4.8 kmh 29.89 in1012.2 mb 0.01 in0.3 mm 0.00 in0.0 mm 0.01 in0.3 mm
09:20 AM 73.0°F22.8°C 72.7°F22.6°C 99% 1.0 mph S1.6 kmh S 3.0 mph4.8 kmh 29.89 in1012.2 mb 0.01 in0.3 mm 0.06 in1.5 mm 0.01 in0.3 mm
09:10 AM 72.9°F22.7°C 72.7°F22.6°C 99% Calm Calm 2.0 mph3.2 kmh 29.90 in1012.5 mb 0.00 in0.0 mm 0.00 in0.0 mm 0.00 in0.0 mm
09:00 AM 73.0°F22.8°C 72.7°F22.6°C 99% Calm Calm 2.0 mph3.2 kmh 29.90 in1012.5 mb 0.00 in0.0 mm 0.00 in0.0 mm 0.00 in0.0 mm
08:50 AM 73.0°F22.8°C 72.9°F22.7°C 99% 1.0 mph S1.6 kmh S 4.0 mph6.4 kmh 29.90 in1012.5 mb 0.00 in0.0 mm 0.00 in0.0 mm 0.00 in0.0 mm
08:40 AM 69.8°F21.0°C 69.8°F21.0°C 100% 1.0 mph S1.6 kmh S 4.0 mph6.4 kmh 29.90 in1012.5 mb 0.00 in0.0 mm 0.00 in0.0 mm 0.00 in0.0 mm
08:30 AM 69.8°F21.0°C 69.8°F21.0°C 100% 1.0 mph S1.6 kmh S 4.0 mph6.4 kmh 29.90 in1012.5 mb 0.00 in0.0 mm 0.00 in0.0 mm 0.00 in0.0 mm
08:20 AM 69.8°F21.0°C 69.8°F21.0°C 100% 1.0 mph S1.6 kmh S 4.0 mph6.4 kmh 29.90 in1012.5 mb 0.00 in0.0 mm 0.00 in0.0 mm 0.00 in0.0 mm
08:10 AM 69.8°F21.0°C 69.8°F21.0°C 100% 1.0 mph S1.6 kmh S 4.0 mph6.4 kmh 29.90 in1012.5 mb 0.00 in0.0 mm 0.00 in0.0 mm 0.00 in0.0 mm
08:00 AM 69.8°F21.0°C 69.8°F21.0°C 100% 1.0 mph S1.6 kmh S 4.0 mph6.4 kmh 29.90 in1012.5 mb 0.00 in0.0 mm 0.00 in0.0 mm 0.00 in0.0 mm
07:50 AM 69.8°F21.0°C 69.8°F21.0°C 100% 1.0 mph S1.6 kmh S 4.0 mph6.4 kmh 29.89 in1012.2 mb 0.00 in0.0 mm 0.00 in0.0 mm 0.00 in0.0 mm
07:40 AM 69.8°F21.0°C 69.8°F21.0°C 100% 1.0 mph S1.6 kmh S 4.0 mph6.4 kmh 29.89 in1012.2 mb 0.00 in0.0 mm 0.00 in0.0 mm 0.00 in0.0 mm
07:30 AM 69.8°F21.0°C 69.8°F21.0°C 100% 1.0 mph S1.6 kmh S 4.0 mph6.4 kmh 29.89 in1012.2 mb 0.00 in0.0 mm 0.00 in0.0 mm 0.00 in0.0 mm
07:20 AM 69.8°F21.0°C 69.8°F21.0°C 100% 1.0 mph S1.6 kmh S 4.0 mph6.4 kmh 29.88 in1011.9 mb 0.00 in0.0 mm 0.00 in0.0 mm 0.00 in0.0 mm
07:10 AM 69.8°F21.0°C 69.8°F21.0°C 100% 1.0 mph S1.6 kmh S 4.0 mph6.4 kmh 29.88 in1011.9 mb 0.00 in0.0 mm 0.00 in0.0 mm 0.00 in0.0 mm
07:00 AM 69.8°F21.0°C 69.8°F21.0°C 100% 1.0 mph S1.6 kmh S 4.0 mph6.4 kmh 29.88 in1011.9 mb 0.00 in0.0 mm 0.00 in0.0 mm 0.00 in0.0 mm
06:50 AM 69.8°F21.0°C 69.8°F21.0°C 100% 1.0 mph S1.6 kmh S 4.0 mph6.4 kmh 29.87 in1011.5 mb 0.00 in0.0 mm 0.00 in0.0 mm 0.00 in0.0 mm
06:40 AM 69.8°F21.0°C 69.8°F21.0°C 100% 1.0 mph S1.6 kmh S 4.0 mph6.4 kmh 29.87 in1011.5 mb 0.00 in0.0 mm 0.00 in0.0 mm 0.00 in0.0 mm
06:30 AM 69.8°F21.0°C 69.8°F21.0°C 100% 1.0 mph S1.6 kmh S 4.0 mph6.4 kmh 29.87 in1011.5 mb 0.00 in0.0 mm 0.00 in0.0 mm 0.00 in0.0 mm
06:20 AM 69.8°F21.0°C 69.8°F21.0°C 100% 1.0 mph S1.6 kmh S 4.0 mph6.4 kmh 29.87 in1011.5 mb 0.00 in0.0 mm 0.00 in0.0 mm 0.00 in0.0 mm
06:10 AM 69.8°F21.0°C 69.8°F21.0°C 100% 1.0 mph S1.6 kmh S 4.0 mph6.4 kmh 29.87 in1011.5 mb 0.00 in0.0 mm 0.00 in0.0 mm 0.00 in0.0 mm
06:00 AM 69.8°F21.0°C 69.8°F21.0°C 100% 1.0 mph S1.6 kmh S 4.0 mph6.4 kmh 29.87 in1011.5 mb 0.00 in0.0 mm 0.00 in0.0 mm 0.00 in0.0 mm
05:50 AM 69.8°F21.0°C 69.8°F21.0°C 100% 1.0 mph S1.6 kmh S 4.0 mph6.4 kmh 29.88 in1011.9 mb 0.00 in0.0 mm 0.00 in0.0 mm 0.00 in0.0 mm
05:40 AM 69.8°F21.0°C 69.8°F21.0°C 100% 1.0 mph S1.6 kmh S 4.0 mph6.4 kmh 29.87 in1011.5 mb 0.00 in0.0 mm 0.00 in0.0 mm 0.00 in0.0 mm
05:30 AM 69.8°F21.0°C 69.8°F21.0°C 100% 1.0 mph S1.6 kmh S 4.0 mph6.4 kmh 29.88 in1011.9 mb 0.00 in0.0 mm 0.00 in0.0 mm 0.00 in0.0 mm
05:20 AM 69.8°F21.0°C 69.8°F21.0°C 100% 1.0 mph S1.6 kmh S 4.0 mph6.4 kmh 29.87 in1011.5 mb 0.00 in0.0 mm 0.00 in0.0 mm 0.00 in0.0 mm
05:10 AM 69.8°F21.0°C 69.8°F21.0°C 100% 1.0 mph S1.6 kmh S 4.0 mph6.4 kmh 29.88 in1011.9 mb 0.00 in0.0 mm 0.00 in0.0 mm 0.00 in0.0 mm
05:00 AM 69.8°F21.0°C 69.8°F21.0°C 100% 1.0 mph S1.6 kmh S 4.0 mph6.4 kmh 29.87 in1011.5 mb 0.00 in0.0 mm 0.00 in0.0 mm 0.00 in0.0 mm
04:50 AM 69.8°F21.0°C 69.8°F21.0°C 100% 1.0 mph S1.6 kmh S 4.0 mph6.4 kmh 29.87 in1011.5 mb 0.00 in0.0 mm 0.00 in0.0 mm 0.00 in0.0 mm
04:40 AM 69.8°F21.0°C 69.8°F21.0°C 100% 1.0 mph S1.6 kmh S 4.0 mph6.4 kmh 29.86 in1011.2 mb 0.00 in0.0 mm 0.00 in0.0 mm 0.00 in0.0 mm
04:30 AM 69.8°F21.0°C 69.8°F21.0°C 100% 1.0 mph S1.6 kmh S 4.0 mph6.4 kmh 29.86 in1011.2 mb 0.00 in0.0 mm 0.00 in0.0 mm 0.00 in0.0 mm
04:20 AM 69.8°F21.0°C 69.8°F21.0°C 100% 1.0 mph S1.6 kmh S 4.0 mph6.4 kmh 29.85 in1010.8 mb 0.00 in0.0 mm 0.00 in0.0 mm 0.00 in0.0 mm
04:10 AM 69.8°F21.0°C 69.8°F21.0°C 100% 1.0 mph S1.6 kmh S 4.0 mph6.4 kmh 29.85 in1010.8 mb 0.00 in0.0 mm 0.00 in0.0 mm 0.00 in0.0 mm
04:00 AM 69.8°F21.0°C 69.8°F21.0°C 100% 1.0 mph S1.6 kmh S 4.0 mph6.4 kmh 29.86 in1011.2 mb 0.00 in0.0 mm 0.00 in0.0 mm 0.00 in0.0 mm
03:50 AM 69.8°F21.0°C 69.8°F21.0°C 100% 1.0 mph S1.6 kmh S 4.0 mph6.4 kmh 29.85 in1010.8 mb 0.00 in0.0 mm 0.00 in0.0 mm 0.00 in0.0 mm
03:40 AM 69.8°F21.0°C 69.8°F21.0°C 100% 1.0 mph S1.6 kmh S 4.0 mph6.4 kmh 29.86 in1011.2 mb 0.00 in0.0 mm 0.00 in0.0 mm 0.00 in0.0 mm
03:30 AM 69.8°F21.0°C 69.8°F21.0°C 100% 1.0 mph S1.6 kmh S 4.0 mph6.4 kmh 29.85 in1010.8 mb 0.00 in0.0 mm 0.00 in0.0 mm 0.00 in0.0 mm
03:20 AM 69.8°F21.0°C 69.8°F21.0°C 100% 1.0 mph S1.6 kmh S 4.0 mph6.4 kmh 29.85 in1010.8 mb 0.00 in0.0 mm 0.00 in0.0 mm 0.00 in0.0 mm
03:10 AM 69.8°F21.0°C 69.8°F21.0°C 100% 1.0 mph S1.6 kmh S 4.0 mph6.4 kmh 29.85 in1010.8 mb 0.00 in0.0 mm 0.00 in0.0 mm 0.00 in0.0 mm
03:00 AM 69.8°F21.0°C 69.8°F21.0°C 100% 1.0 mph S1.6 kmh S 4.0 mph6.4 kmh 29.85 in1010.8 mb 0.00 in0.0 mm 0.00 in0.0 mm 0.00 in0.0 mm
02:50 AM 69.8°F21.0°C 69.8°F21.0°C 100% 1.0 mph S1.6 kmh S 4.0 mph6.4 kmh 29.86 in1011.2 mb 0.00 in0.0 mm 0.00 in0.0 mm 0.00 in0.0 mm
02:40 AM 69.8°F21.0°C 69.8°F21.0°C 100% 1.0 mph S1.6 kmh S 4.0 mph6.4 kmh 29.86 in1011.2 mb 0.00 in0.0 mm 0.00 in0.0 mm 0.00 in0.0 mm
02:30 AM 69.8°F21.0°C 69.8°F21.0°C 100% 1.0 mph S1.6 kmh S 4.0 mph6.4 kmh 29.86 in1011.2 mb 0.00 in0.0 mm 0.00 in0.0 mm 0.00 in0.0 mm
02:20 AM 69.8°F21.0°C 69.8°F21.0°C 100% 1.0 mph S1.6 kmh S 4.0 mph6.4 kmh 29.86 in1011.2 mb 0.00 in0.0 mm 0.00 in0.0 mm 0.00 in0.0 mm
02:10 AM 69.8°F21.0°C 69.8°F21.0°C 100% 1.0 mph S1.6 kmh S 4.0 mph6.4 kmh 29.87 in1011.5 mb 0.00 in0.0 mm 0.00 in0.0 mm 0.00 in0.0 mm
02:00 AM 69.8°F21.0°C 69.8°F21.0°C 100% 1.0 mph S1.6 kmh S 4.0 mph6.4 kmh 29.87 in1011.5 mb 0.00 in0.0 mm 0.00 in0.0 mm 0.00 in0.0 mm
01:50 AM 69.8°F21.0°C 69.8°F21.0°C 100% 1.0 mph S1.6 kmh S 4.0 mph6.4 kmh 29.87 in1011.5 mb 0.00 in0.0 mm 0.00 in0.0 mm 0.00 in0.0 mm
01:40 AM 69.8°F21.0°C 69.8°F21.0°C 100% 1.0 mph S1.6 kmh S 4.0 mph6.4 kmh 29.87 in1011.5 mb 0.00 in0.0 mm 0.00 in0.0 mm 0.00 in0.0 mm
01:30 AM 69.8°F21.0°C 69.8°F21.0°C 100% 1.0 mph S1.6 kmh S 4.0 mph6.4 kmh 29.88 in1011.9 mb 0.00 in0.0 mm 0.00 in0.0 mm 0.00 in0.0 mm
01:20 AM 69.8°F21.0°C 69.8°F21.0°C 100% 1.0 mph S1.6 kmh S 4.0 mph6.4 kmh 29.88 in1011.9 mb 0.00 in0.0 mm 0.00 in0.0 mm 0.00 in0.0 mm
01:10 AM 69.8°F21.0°C 69.8°F21.0°C 100% 1.0 mph SSE1.6 kmh SSE 3.0 mph4.8 kmh 29.88 in1011.9 mb 0.00 in0.0 mm 0.00 in0.0 mm 0.00 in0.0 mm
01:00 AM 69.6°F20.9°C 69.6°F20.9°C 100% 1.0 mph SSE1.6 kmh SSE 2.0 mph3.2 kmh 29.88 in1011.9 mb 0.00 in0.0 mm 0.00 in0.0 mm 0.00 in0.0 mm
12:50 AM 69.6°F20.9°C 69.6°F20.9°C 100% 1.0 mph SSE1.6 kmh SSE 5.0 mph8.0 kmh 29.89 in1012.2 mb 0.00 in0.0 mm 0.00 in0.0 mm 0.00 in0.0 mm
12:40 AM 69.4°F20.8°C 69.4°F20.8°C 100% 1.0 mph S1.6 kmh S 4.0 mph6.4 kmh 29.89 in1012.2 mb 0.00 in0.0 mm 0.00 in0.0 mm 0.00 in0.0 mm
12:30 AM 69.3°F20.7°C 69.3°F20.7°C 100% Calm Calm 3.0 mph4.8 kmh 29.89 in1012.2 mb 0.00 in0.0 mm 0.00 in0.0 mm 0.00 in0.0 mm
12:20 AM 69.1°F20.6°C 69.1°F20.6°C 100% 1.0 mph SE1.6 kmh SE 2.0 mph3.2 kmh 29.90 in1012.5 mb 0.00 in0.0 mm 0.00 in0.0 mm 0.00 in0.0 mm
12:10 AM 69.1°F20.6°C 69.1°F20.6°C 100% Calm Calm 1.0 mph1.6 kmh 29.90 in1012.5 mb 0.00 in0.0 mm 0.00 in0.0 mm 0.00 in0.0 mm
12:00 AM 69.1°F20.6°C 69.1°F20.6°C 100% Calm Calm 3.0 mph4.8 kmh 29.91 in1012.9 mb 0.00 in0.0 mm 0.00 in0.0 mm 0.00 in0.0 mm